Time;durP1;ratioP1;P1;durP2;ratioP2;P2;SDS_P1;SDS_P2;PMS_P1;PMS_P2;Temp;Humidity;BMP_temperature;BMP_pressure;BME280_temperature;BME280_humidity;BME280_pressure;Samples;Min_cycle;Max_cycle;Signal;HPM_P1;HPM_P2
2021/09/30 00:02:22;;;;;;;7.70;1.40;;;;;;;;;;5034083;28;20409;-52
2021/09/30 00:04:48;;;;;;;1.25;0.65;;;;;;;;;;5032969;28;20026;-52
2021/09/30 00:07:14;;;;;;;1.02;0.50;;;;;;;;;;5034127;28;20095;-52
2021/09/30 00:09:44;;;;;;;4.35;0.90;;;;;;;;;;5033542;28;20030;-52
2021/09/30 00:12:14;;;;;;;1.10;0.50;;;;;;;;;;5033829;28;20083;-52
2021/09/30 00:52:28;;;;;;;0.73;0.60;;;;;;;;;;5033275;28;20075;-52
2021/09/30 02:40:10;;;;;;;2.22;0.60;;;;;;;;;;5036134;28;20037;-52
2021/09/30 02:58:56;;;;;;;0.95;0.50;;;;;;;;;;5055502;28;20382;-52
2021/09/30 03:01:24;;;;;;;3.92;0.98;;;;;;;;;;5054858;28;20083;-52
2021/09/30 03:03:52;;;;;;;1.25;0.60;;;;;;;;;;5053917;28;20025;-52
2021/09/30 03:06:19;;;;;;;3.33;0.70;;;;;;;;;;5050489;28;20113;-52
2021/09/30 03:08:48;;;;;;;3.80;0.75;;;;;;;;;;5034890;28;20037;-52
2021/09/30 03:11:14;;;;;;;2.13;0.50;;;;;;;;;;5034565;28;20014;-52
2021/09/30 03:13:41;;;;;;;1.25;0.60;;;;;;;;;;5034059;28;20025;-52
2021/09/30 03:23:33;;;;;;;2.92;0.60;;;;;;;;;;5034253;28;20021;-52
2021/09/30 03:26:00;;;;;;;0.55;0.52;;;;;;;;;;5034434;28;20327;-52
2021/09/30 03:28:26;;;;;;;2.45;0.68;;;;;;;;;;5034503;28;20041;-52
2021/09/30 03:30:53;;;;;;;0.85;0.60;;;;;;;;;;5034550;28;20029;-52
2021/09/30 03:33:20;;;;;;;1.83;1.08;;;;;;;;;;5034627;28;20061;-52
2021/09/30 03:35:46;;;;;;;2.08;0.63;;;;;;;;;;5033259;28;20049;-52
2021/09/30 03:38:13;;;;;;;3.10;0.70;;;;;;;;;;5034707;28;20025;-52
2021/09/30 03:40:39;;;;;;;3.03;1.00;;;;;;;;;;5034383;28;20022;-52
2021/09/30 03:43:06;;;;;;;0.88;0.75;;;;;;;;;;5034279;28;20114;-52
2021/09/30 03:45:33;;;;;;;11.82;0.73;;;;;;;;;;5032547;28;20026;-51
2021/09/30 03:47:59;;;;;;;2.72;0.75;;;;;;;;;;5034099;28;20045;-52
2021/09/30 03:50:28;;;;;;;0.70;0.60;;;;;;;;;;5033467;28;20116;-52
2021/09/30 04:00:38;;;;;;;0.52;0.52;;;;;;;;;;5034068;28;20048;-52
2021/09/30 04:03:05;;;;;;;1.30;0.63;;;;;;;;;;5033284;28;20196;-52
2021/09/30 04:05:31;;;;;;;4.78;0.70;;;;;;;;;;5033348;28;20040;-52
2021/09/30 04:07:57;;;;;;;3.40;1.15;;;;;;;;;;5033932;28;20138;-52
2021/09/30 04:10:23;;;;;;;1.00;0.70;;;;;;;;;;5034316;28;20053;-52
2021/09/30 04:12:49;;;;;;;0.82;0.60;;;;;;;;;;5033968;28;20104;-52
2021/09/30 04:15:15;;;;;;;1.38;0.77;;;;;;;;;;5033136;28;20578;-52
2021/09/30 04:17:41;;;;;;;1.63;0.70;;;;;;;;;;5033475;28;20036;-52
2021/09/30 04:20:07;;;;;;;4.93;0.88;;;;;;;;;;5033566;28;20432;-52
2021/09/30 04:22:33;;;;;;;0.75;0.47;;;;;;;;;;5033083;28;20033;-52
2021/09/30 04:24:59;;;;;;;1.33;0.77;;;;;;;;;;5033152;28;20021;-52
2021/09/30 04:27:25;;;;;;;3.30;0.85;;;;;;;;;;5033432;28;20033;-51
2021/09/30 04:29:51;;;;;;;3.78;0.90;;;;;;;;;;5033568;28;20083;-52
2021/09/30 04:32:17;;;;;;;1.00;0.60;;;;;;;;;;5032624;28;20453;-52
2021/09/30 04:34:43;;;;;;;1.05;0.60;;;;;;;;;;5032752;28;20107;-52
2021/09/30 04:37:09;;;;;;;3.13;1.17;;;;;;;;;;5033391;28;20443;-52
2021/09/30 04:39:36;;;;;;;1.45;0.38;;;;;;;;;;5033288;28;20455;-52
2021/09/30 04:42:02;;;;;;;1.17;0.65;;;;;;;;;;5033052;28;20026;-52
2021/09/30 04:44:28;;;;;;;0.50;0.50;;;;;;;;;;5032575;28;20116;-52
2021/09/30 04:46:54;;;;;;;0.52;0.52;;;;;;;;;;5033199;28;20036;-52
2021/09/30 04:49:20;;;;;;;1.98;0.93;;;;;;;;;;5033113;28;20086;-52
2021/09/30 04:51:46;;;;;;;1.17;0.60;;;;;;;;;;5032853;28;20105;-52
2021/09/30 04:54:12;;;;;;;0.65;0.47;;;;;;;;;;5032605;28;20083;-52
2021/09/30 04:56:38;;;;;;;1.65;0.80;;;;;;;;;;5032965;28;20124;-52
2021/09/30 04:59:05;;;;;;;1.30;0.90;;;;;;;;;;5032547;28;20021;-52
2021/09/30 05:01:31;;;;;;;0.77;0.65;;;;;;;;;;5033285;28;20359;-52
2021/09/30 05:03:57;;;;;;;2.83;0.82;;;;;;;;;;5031911;28;20018;-51
2021/09/30 05:06:23;;;;;;;3.95;0.68;;;;;;;;;;5033195;28;20021;-51
2021/09/30 05:08:50;;;;;;;3.10;0.60;;;;;;;;;;5032514;28;20029;-51
2021/09/30 05:11:17;;;;;;;12.63;0.88;;;;;;;;;;5032981;28;20022;-51
2021/09/30 05:13:44;;;;;;;2.58;0.77;;;;;;;;;;5031847;28;20083;-51
2021/09/30 05:16:14;;;;;;;3.38;1.00;;;;;;;;;;5032725;28;20026;-51
2021/09/30 05:18:47;;;;;;;2.10;0.60;;;;;;;;;;5032508;28;20032;-51
2021/09/30 05:21:13;;;;;;;1.05;0.95;;;;;;;;;;5032578;28;20025;-51
2021/09/30 05:23:39;;;;;;;0.90;0.73;;;;;;;;;;5030812;28;20067;-52
2021/09/30 05:26:05;;;;;;;0.70;0.70;;;;;;;;;;5032912;28;20038;-51
2021/09/30 05:28:31;;;;;;;1.55;1.10;;;;;;;;;;5032272;28;20128;-51
2021/09/30 05:30:58;;;;;;;0.65;0.65;;;;;;;;;;5032816;28;20291;-51
2021/09/30 05:33:24;;;;;;;0.60;0.50;;;;;;;;;;5032682;28;20087;-51
2021/09/30 05:35:50;;;;;;;3.70;0.98;;;;;;;;;;5031805;28;20444;-51
2021/09/30 05:38:16;;;;;;;2.00;0.88;;;;;;;;;;5032550;28;20423;-51
2021/09/30 05:40:47;;;;;;;1.85;0.60;;;;;;;;;;5032493;28;20078;-51
2021/09/30 05:43:19;;;;;;;;;;;;;;;;;;5032748;28;20025;-51
2021/09/30 05:45:45;;;;;;;2.35;1.00;;;;;;;;;;5031944;28;20145;-51
2021/09/30 05:48:11;;;;;;;3.25;0.65;;;;;;;;;;5032803;28;20041;-51
2021/09/30 05:50:37;;;;;;;2.22;0.80;;;;;;;;;;5032949;28;20034;-52
2021/09/30 05:53:04;;;;;;;1.80;0.70;;;;;;;;;;5032272;28;20075;-51
2021/09/30 05:55:30;;;;;;;1.38;0.80;;;;;;;;;;5032175;28;20052;-51
2021/09/30 05:57:56;;;;;;;1.05;0.70;;;;;;;;;;5031801;28;20351;-51
2021/09/30 06:00:29;;;;;;;2.80;0.70;;;;;;;;;;5032644;28;20084;-51
2021/09/30 06:11:01;;;;;;;3.05;0.93;;;;;;;;;;5036560;28;20044;-51
2021/09/30 06:13:34;;;;;;;0.60;0.60;;;;;;;;;;5035574;28;20025;-51
2021/09/30 06:16:06;;;;;;;3.15;0.85;;;;;;;;;;5036168;28;20037;-51
2021/09/30 06:18:32;;;;;;;2.33;0.80;;;;;;;;;;5035712;28;20030;-51
2021/09/30 06:20:58;;;;;;;4.20;0.70;;;;;;;;;;5036016;28;20037;-51
2021/09/30 06:23:24;;;;;;;1.85;0.70;;;;;;;;;;5035451;28;20451;-52
2021/09/30 06:25:50;;;;;;;0.70;0.60;;;;;;;;;;5035044;28;20033;-51
2021/09/30 06:28:16;;;;;;;1.55;0.60;;;;;;;;;;5035485;28;20049;-52
2021/09/30 06:30:42;;;;;;;1.30;0.88;;;;;;;;;;5035829;28;20036;-52
2021/09/30 06:33:08;;;;;;;3.45;0.85;;;;;;;;;;5035542;28;20025;-52
2021/09/30 06:35:34;;;;;;;0.65;0.60;;;;;;;;;;5034830;28;20048;-52
2021/09/30 06:38:00;;;;;;;1.98;0.70;;;;;;;;;;5035475;28;20387;-52
2021/09/30 06:40:26;;;;;;;1.35;0.60;;;;;;;;;;5035892;28;20017;-52
2021/09/30 06:42:52;;;;;;;2.85;0.85;;;;;;;;;;5035600;28;20163;-52
2021/09/30 06:45:18;;;;;;;2.17;0.77;;;;;;;;;;5034966;28;20026;-51
2021/09/30 06:47:44;;;;;;;3.50;1.20;;;;;;;;;;5035168;28;20036;-52
2021/09/30 06:50:11;;;;;;;1.40;0.73;;;;;;;;;;5035108;28;20024;-52
2021/09/30 06:52:38;;;;;;;7.32;1.02;;;;;;;;;;5035437;28;20037;-52
2021/09/30 06:55:04;;;;;;;4.28;0.65;;;;;;;;;;5034201;28;20428;-52
2021/09/30 06:57:30;;;;;;;0.75;0.75;;;;;;;;;;5035787;28;20121;-52
2021/09/30 07:00:01;;;;;;;2.10;1.00;;;;;;;;;;5035343;28;20025;-51
2021/09/30 07:02:27;;;;;;;1.42;0.50;;;;;;;;;;5035235;28;20034;-51
2021/09/30 07:04:53;;;;;;;4.78;0.80;;;;;;;;;;5033864;28;20510;-52
2021/09/30 07:07:19;;;;;;;3.10;0.63;;;;;;;;;;5035159;28;20104;-52
2021/09/30 07:09:45;;;;;;;0.70;0.50;;;;;;;;;;5035051;28;20512;-52
2021/09/30 07:12:12;;;;;;;3.10;1.33;;;;;;;;;;5035021;28;20029;-52
2021/09/30 07:14:38;;;;;;;0.80;0.55;;;;;;;;;;5033871;28;20091;-52
2021/09/30 07:17:04;;;;;;;0.82;0.70;;;;;;;;;;5035084;28;20025;-52
2021/09/30 07:19:33;;;;;;;1.65;0.93;;;;;;;;;;5033578;28;20022;-52
2021/09/30 07:21:59;;;;;;;1.33;0.70;;;;;;;;;;5034459;28;20021;-53
2021/09/30 07:24:25;;;;;;;5.07;0.90;;;;;;;;;;5033753;28;21062;-53
2021/09/30 07:26:51;;;;;;;1.90;0.70;;;;;;;;;;5034590;28;20024;-53
2021/09/30 07:29:17;;;;;;;1.48;0.77;;;;;;;;;;5034369;28;20132;-53
2021/09/30 07:31:43;;;;;;;6.40;1.33;;;;;;;;;;5034419;28;20025;-53
2021/09/30 07:34:11;;;;;;;3.15;0.75;;;;;;;;;;5033877;28;20075;-53
2021/09/30 07:36:38;;;;;;;2.53;1.42;;;;;;;;;;5034491;28;20083;-53
2021/09/30 07:39:05;;;;;;;2.70;0.80;;;;;;;;;;5034322;28;20021;-53
2021/09/30 07:41:31;;;;;;;1.88;1.20;;;;;;;;;;5034655;28;20022;-53
2021/09/30 07:43:57;;;;;;;1.17;0.93;;;;;;;;;;5033282;28;20040;-53
2021/09/30 07:46:23;;;;;;;4.15;0.90;;;;;;;;;;5038020;28;20031;-53
2021/09/30 07:48:49;;;;;;;6.38;1.00;;;;;;;;;;5043232;28;20033;-53
2021/09/30 07:51:16;;;;;;;4.38;0.88;;;;;;;;;;5036304;28;20116;-53
2021/09/30 07:53:42;;;;;;;5.75;1.13;;;;;;;;;;5053003;28;20068;-53
2021/09/30 07:56:08;;;;;;;1.85;0.93;;;;;;;;;;5047191;28;20030;-53
2021/09/30 07:58:34;;;;;;;2.15;1.55;;;;;;;;;;5034270;28;20018;-53
2021/09/30 08:01:00;;;;;;;1.80;0.63;;;;;;;;;;5034287;28;20485;-53
2021/09/30 08:03:29;;;;;;;4.63;1.00;;;;;;;;;;5033462;28;20026;-53
2021/09/30 08:05:55;;;;;;;2.22;0.95;;;;;;;;;;5037307;28;20013;-53
2021/09/30 08:08:21;;;;;;;1.88;0.77;;;;;;;;;;5053494;28;20048;-53
2021/09/30 08:10:47;;;;;;;4.65;0.88;;;;;;;;;;5053239;28;20028;-53
2021/09/30 08:13:13;;;;;;;2.65;1.25;;;;;;;;;;5053577;28;20120;-53
2021/09/30 08:15:39;;;;;;;3.13;0.90;;;;;;;;;;5052831;28;20116;-53
2021/09/30 08:18:05;;;;;;;2.10;0.82;;;;;;;;;;5054043;28;20536;-53
2021/09/30 08:20:32;;;;;;;1.02;0.90;;;;;;;;;;5053352;28;20067;-53
2021/09/30 08:22:58;;;;;;;1.55;0.52;;;;;;;;;;5052990;28;20125;-53
2021/09/30 08:25:24;;;;;;;6.35;1.00;;;;;;;;;;5052060;28;20017;-53
2021/09/30 08:27:50;;;;;;;4.35;0.77;;;;;;;;;;5053095;28;20037;-53
2021/09/30 08:30:16;;;;;;;0.95;0.63;;;;;;;;;;5052943;28;20079;-53
2021/09/30 08:32:43;;;;;;;4.78;0.82;;;;;;;;;;5053430;28;20439;-54
2021/09/30 08:35:09;;;;;;;1.88;0.60;;;;;;;;;;5052121;28;20033;-54
2021/09/30 08:37:36;;;;;;;3.03;0.60;;;;;;;;;;5053362;28;20032;-54
2021/09/30 08:40:03;;;;;;;1.58;0.65;;;;;;;;;;5052694;28;20451;-54
2021/09/30 08:42:29;;;;;;;2.58;0.70;;;;;;;;;;5052699;28;20031;-55
2021/09/30 08:44:57;;;;;;;1.20;0.75;;;;;;;;;;5052218;28;20025;-54
2021/09/30 08:47:23;;;;;;;2.47;0.80;;;;;;;;;;5052525;28;20059;-54
2021/09/30 08:49:49;;;;;;;5.45;0.82;;;;;;;;;;5052651;28;20029;-54
2021/09/30 08:52:15;;;;;;;2.72;0.70;;;;;;;;;;5052685;28;20040;-54
2021/09/30 08:54:41;;;;;;;1.65;0.70;;;;;;;;;;5052332;28;20214;-54
2021/09/30 08:57:07;;;;;;;0.50;0.50;;;;;;;;;;5053299;28;20100;-54
2021/09/30 08:59:34;;;;;;;0.47;0.47;;;;;;;;;;5052954;28;20029;-54
2021/09/30 09:02:05;;;;;;;0.68;0.45;;;;;;;;;;5053014;28;20025;-54
2021/09/30 09:04:31;;;;;;;6.90;0.65;;;;;;;;;;5051816;28;20025;-54
2021/09/30 09:07:04;;;;;;;2.58;0.50;;;;;;;;;;5052382;28;20036;-54
2021/09/30 09:09:30;;;;;;;5.60;1.08;;;;;;;;;;5052318;28;20531;-54
2021/09/30 09:11:57;;;;;;;1.92;0.50;;;;;;;;;;5052260;28;20092;-54
2021/09/30 09:14:27;;;;;;;1.00;0.57;;;;;;;;;;5051681;28;20032;-54
2021/09/30 09:17:00;;;;;;;0.45;0.45;;;;;;;;;;5052547;28;20025;-54
2021/09/30 09:19:32;;;;;;;1.10;0.50;;;;;;;;;;5052198;28;20383;-54
2021/09/30 09:22:03;;;;;;;1.83;0.45;;;;;;;;;;5052212;28;20049;-54
2021/09/30 09:24:29;;;;;;;1.80;0.70;;;;;;;;;;5051841;28;20067;-54
2021/09/30 09:26:59;;;;;;;2.15;0.40;;;;;;;;;;5052299;28;20021;-55
2021/09/30 09:29:28;;;;;;;1.73;0.65;;;;;;;;;;5052305;28;20071;-54
2021/09/30 09:31:54;;;;;;;1.27;0.40;;;;;;;;;;5051884;28;20025;-54
2021/09/30 09:34:20;;;;;;;5.55;1.35;;;;;;;;;;5051878;28;20086;-54
2021/09/30 09:36:49;;;;;;;0.55;0.50;;;;;;;;;;5051735;28;20029;-54
2021/09/30 09:39:15;;;;;;;3.22;0.73;;;;;;;;;;5052505;28;20033;-54
2021/09/30 09:41:41;;;;;;;1.95;0.40;;;;;;;;;;5052178;28;20036;-55
2021/09/30 09:44:08;;;;;;;3.65;0.40;;;;;;;;;;5055415;28;20017;-54
2021/09/30 09:46:35;;;;;;;0.80;0.32;;;;;;;;;;5055828;28;20090;-54
2021/09/30 09:49:03;;;;;;;0.77;0.30;;;;;;;;;;5056015;28;20498;-54
2021/09/30 09:51:35;;;;;;;0.35;0.35;;;;;;;;;;5056287;28;20070;-54
2021/09/30 09:54:01;;;;;;;1.05;0.68;;;;;;;;;;5055261;28;20336;-54
2021/09/30 09:56:27;;;;;;;0.50;0.50;;;;;;;;;;5056348;28;20025;-54
2021/09/30 09:58:55;;;;;;;0.52;0.40;;;;;;;;;;5055455;28;20350;-54
2021/09/30 10:01:25;;;;;;;0.80;0.47;;;;;;;;;;5055648;28;20025;-54
2021/09/30 10:03:57;;;;;;;2.58;0.50;;;;;;;;;;5055086;28;20437;-54
2021/09/30 10:06:23;;;;;;;2.13;0.50;;;;;;;;;;5055920;28;20025;-54
2021/09/30 10:08:50;;;;;;;0.45;0.43;;;;;;;;;;5055813;28;20063;-54
2021/09/30 10:11:16;;;;;;;1.67;0.43;;;;;;;;;;5055477;28;20450;-54
2021/09/30 10:13:42;;;;;;;6.65;1.00;;;;;;;;;;5054624;28;20035;-54
2021/09/30 10:16:08;;;;;;;7.28;1.25;;;;;;;;;;5055797;28;20017;-54
2021/09/30 10:18:34;;;;;;;3.42;1.15;;;;;;;;;;5055877;28;20056;-54
2021/09/30 10:21:01;;;;;;;1.17;0.47;;;;;;;;;;5055847;28;20402;-54
2021/09/30 10:23:28;;;;;;;1.27;0.50;;;;;;;;;;5054967;28;20117;-54
2021/09/30 10:25:56;;;;;;;1.75;0.70;;;;;;;;;;5055453;28;20154;-54
2021/09/30 10:28:23;;;;;;;0.98;0.60;;;;;;;;;;5048557;28;20065;-54
2021/09/30 10:30:50;;;;;;;0.85;0.50;;;;;;;;;;5045027;28;20021;-54
2021/09/30 10:33:19;;;;;;;1.75;0.50;;;;;;;;;;5045655;28;20324;-54
2021/09/30 10:35:52;;;;;;;1.30;0.45;;;;;;;;;;5043237;28;20060;-54
2021/09/30 10:38:21;;;;;;;1.95;0.40;;;;;;;;;;5044202;28;21078;-54
2021/09/30 10:41:06;;;;;;;1.27;0.75;;;;;;;;;;5044025;28;20018;-54
2021/09/30 10:43:41;;;;;;;1.65;0.60;;;;;;;;;;5044194;28;20443;-55
2021/09/30 10:46:07;;;;;;;0.30;0.30;;;;;;;;;;5043933;28;20025;-54
2021/09/30 10:48:36;;;;;;;0.73;0.40;;;;;;;;;;5044416;28;20033;-54
2021/09/30 10:51:12;;;;;;;0.73;0.40;;;;;;;;;;5045102;28;20466;-54
2021/09/30 10:53:47;;;;;;;1.60;0.60;;;;;;;;;;5044843;28;20053;-54
2021/09/30 10:59:04;;;;;;;;;;;;;;;;;;5035438;28;20033;-54
2021/09/30 11:01:30;;;;;;;0.38;0.38;;;;;;;;;;5034553;28;19912;-54
2021/09/30 11:03:59;;;;;;;0.38;0.38;;;;;;;;;;5034120;28;20028;-54
2021/09/30 11:06:25;;;;;;;0.30;0.30;;;;;;;;;;5034854;28;20079;-54
2021/09/30 11:09:10;;;;;;;0.47;0.47;;;;;;;;;;5034566;28;20080;-54
2021/09/30 11:11:36;;;;;;;1.45;0.40;;;;;;;;;;5034621;28;20036;-54
2021/09/30 11:14:02;;;;;;;0.28;0.28;;;;;;;;;;5033716;28;20022;-54
2021/09/30 11:16:36;;;;;;;3.53;0.30;;;;;;;;;;5034268;28;20454;-54
2021/09/30 11:19:03;;;;;;;0.38;0.30;;;;;;;;;;5034679;28;20018;-54
2021/09/30 11:21:31;;;;;;;3.70;0.60;;;;;;;;;;5034855;28;20029;-54
2021/09/30 11:23:57;;;;;;;0.75;0.57;;;;;;;;;;5032632;28;20056;-54
2021/09/30 11:26:24;;;;;;;2.53;0.80;;;;;;;;;;5034820;28;20056;-54
2021/09/30 11:28:51;;;;;;;0.45;0.45;;;;;;;;;;5034519;28;20044;-54
2021/09/30 11:31:24;;;;;;;0.50;0.50;;;;;;;;;;5034193;28;20354;-55
2021/09/30 11:33:51;;;;;;;5.38;0.73;;;;;;;;;;5033453;28;20469;-54
2021/09/30 11:36:17;;;;;;;1.65;0.60;;;;;;;;;;5034682;28;20025;-54
2021/09/30 11:38:43;;;;;;;3.45;0.45;;;;;;;;;;5034689;28;20029;-54
2021/09/30 11:41:09;;;;;;;0.40;0.40;;;;;;;;;;5034045;28;20041;-54
2021/09/30 11:43:35;;;;;;;47.70;2.50;;;;;;;;;;5033837;28;20025;-54
2021/09/30 11:46:20;;;;;;;1.15;0.73;;;;;;;;;;5033926;28;20139;-52
2021/09/30 11:48:58;;;;;;;4.63;0.50;;;;;;;;;;5034105;28;20045;-52
2021/09/30 11:51:30;;;;;;;1.30;0.50;;;;;;;;;;5033982;28;20056;-52
2021/09/30 11:53:56;;;;;;;0.30;0.30;;;;;;;;;;5033635;28;20022;-52
2021/09/30 11:56:22;;;;;;;8.15;0.50;;;;;;;;;;5034266;28;20032;-51
2021/09/30 11:59:18;;;;;;;1.00;0.50;;;;;;;;;;5034092;28;20100;-52
2021/09/30 12:01:49;;;;;;;1.67;0.60;;;;;;;;;;5011562;28;20060;-52
2021/09/30 12:04:45;;;;;;;1.75;0.30;;;;;;;;;;5011087;28;20477;-52
2021/09/30 12:07:37;;;;;;;0.30;0.30;;;;;;;;;;5022819;28;20036;-52
2021/09/30 12:10:03;;;;;;;1.33;0.60;;;;;;;;;;5026496;28;20128;-52
2021/09/30 12:12:33;;;;;;;0.75;0.73;;;;;;;;;;5031220;28;20029;-52
2021/09/30 12:14:59;;;;;;;2.00;0.50;;;;;;;;;;5030380;28;20040;-52
2021/09/30 12:17:30;;;;;;;0.52;0.50;;;;;;;;;;5031140;28;20573;-52
2021/09/30 12:19:56;;;;;;;0.88;0.45;;;;;;;;;;5031087;28;20042;-52
2021/09/30 12:22:24;;;;;;;2.03;0.60;;;;;;;;;;5031056;28;20021;-52
2021/09/30 12:24:51;;;;;;;1.67;0.50;;;;;;;;;;5030378;28;20037;-52
2021/09/30 12:27:18;;;;;;;2.20;0.65;;;;;;;;;;5030841;28;20079;-52
2021/09/30 12:29:46;;;;;;;0.45;0.45;;;;;;;;;;5029768;28;20021;-52
2021/09/30 12:32:15;;;;;;;0.30;0.30;;;;;;;;;;5030170;28;20034;-52
2021/09/30 12:34:44;;;;;;;0.45;0.45;;;;;;;;;;5029366;28;20033;-52
2021/09/30 12:37:10;;;;;;;0.40;0.40;;;;;;;;;;5030346;28;20071;-51
2021/09/30 12:39:36;;;;;;;0.40;0.40;;;;;;;;;;5033156;28;20132;-52
2021/09/30 12:42:13;;;;;;;2.85;0.70;;;;;;;;;;5032762;28;20340;-52
2021/09/30 12:44:43;;;;;;;1.02;0.52;;;;;;;;;;5032036;28;20022;-52
2021/09/30 12:47:09;;;;;;;1.92;0.55;;;;;;;;;;5032419;28;20025;-52
2021/09/30 12:49:35;;;;;;;2.03;0.52;;;;;;;;;;5032466;28;20459;-52
2021/09/30 12:52:17;;;;;;;0.85;0.40;;;;;;;;;;5032446;28;20026;-52
2021/09/30 12:54:44;;;;;;;0.75;0.63;;;;;;;;;;5030954;28;20445;-52
2021/09/30 12:57:11;;;;;;;1.08;0.52;;;;;;;;;;5032612;28;20085;-51
2021/09/30 12:59:37;;;;;;;2.05;0.77;;;;;;;;;;5032335;28;20071;-51
2021/09/30 13:02:04;;;;;;;0.40;0.40;;;;;;;;;;5032316;28;20036;-51
2021/09/30 13:04:33;;;;;;;0.43;0.43;;;;;;;;;;5031536;28;20025;-51
2021/09/30 13:07:05;;;;;;;2.65;0.65;;;;;;;;;;5031896;28;20033;-51
2021/09/30 13:09:32;;;;;;;3.03;0.98;;;;;;;;;;5032204;28;20033;-50
2021/09/30 13:12:03;;;;;;;3.85;0.70;;;;;;;;;;5032148;28;20026;-50
2021/09/30 13:14:29;;;;;;;;;;;;;;;;;;5031789;28;20021;-51
2021/09/30 13:16:55;;;;;;;2.75;0.60;;;;;;;;;;5031236;28;19980;-50
2021/09/30 13:19:39;;;;;;;0.55;0.55;;;;;;;;;;5032140;28;20435;-51
2021/09/30 13:22:05;;;;;;;2.17;0.43;;;;;;;;;;5032631;28;20018;-51
2021/09/30 13:24:33;;;;;;;3.33;0.60;;;;;;;;;;5031496;28;20029;-51
2021/09/30 13:26:59;;;;;;;0.47;0.47;;;;;;;;;;5032036;28;20026;-51
2021/09/30 13:29:25;;;;;;;0.52;0.52;;;;;;;;;;4993404;28;1117998;-51
2021/09/30 13:31:52;;;;;;;0.57;0.40;;;;;;;;;;5032714;28;20021;-50
2021/09/30 13:34:18;;;;;;;2.65;0.47;;;;;;;;;;5031387;28;20030;-51
2021/09/30 13:36:44;;;;;;;0.98;0.65;;;;;;;;;;5032712;28;20036;-50
2021/09/30 13:39:10;;;;;;;0.55;0.50;;;;;;;;;;5032785;28;20105;-50
2021/09/30 13:41:36;;;;;;;2.05;0.70;;;;;;;;;;5032615;28;20112;-50
2021/09/30 13:44:02;;;;;;;0.40;0.40;;;;;;;;;;5031953;28;20025;-52
2021/09/30 13:46:28;;;;;;;7.85;1.13;;;;;;;;;;5029824;28;20025;-53
2021/09/30 13:48:54;;;;;;;0.85;0.50;;;;;;;;;;5033534;28;20041;-53
2021/09/30 13:51:20;;;;;;;0.40;0.40;;;;;;;;;;5048248;28;20350;-52
2021/09/30 13:53:46;;;;;;;2.47;0.73;;;;;;;;;;5050516;28;20347;-52
2021/09/30 13:56:12;;;;;;;0.98;0.50;;;;;;;;;;5041554;28;20032;-53
2021/09/30 13:58:38;;;;;;;1.08;0.50;;;;;;;;;;5032635;28;20359;-52
2021/09/30 14:01:04;;;;;;;0.40;0.40;;;;;;;;;;5032395;28;20030;-53
2021/09/30 14:03:30;;;;;;;0.43;0.38;;;;;;;;;;5031953;28;20120;-53
2021/09/30 14:05:58;;;;;;;2.35;0.90;;;;;;;;;;5032045;28;20332;-53
2021/09/30 14:08:24;;;;;;;0.43;0.43;;;;;;;;;;5031897;28;20617;-52
2021/09/30 14:10:51;;;;;;;3.15;0.70;;;;;;;;;;5032380;28;20359;-52
2021/09/30 14:13:17;;;;;;;0.75;0.43;;;;;;;;;;5031373;28;20028;-53
2021/09/30 14:15:43;;;;;;;1.00;0.55;;;;;;;;;;5031584;28;20025;-52
2021/09/30 14:18:10;;;;;;;1.33;0.52;;;;;;;;;;5031866;28;20030;-53
2021/09/30 14:20:36;;;;;;;4.15;0.70;;;;;;;;;;5032392;28;20029;-53
2021/09/30 14:23:02;;;;;;;0.85;0.60;;;;;;;;;;5032072;28;20021;-53
2021/09/30 14:25:28;;;;;;;0.60;0.40;;;;;;;;;;5031459;28;20223;-52
2021/09/30 14:27:54;;;;;;;1.35;0.60;;;;;;;;;;5031856;28;20030;-53
2021/09/30 14:30:20;;;;;;;3.65;0.57;;;;;;;;;;5035629;28;20390;-53
2021/09/30 14:32:49;;;;;;;0.75;0.70;;;;;;;;;;5035508;28;20367;-53
2021/09/30 14:35:17;;;;;;;5.53;0.77;;;;;;;;;;5034945;28;20087;-53
2021/09/30 14:37:44;;;;;;;0.40;0.40;;;;;;;;;;5035435;28;20033;-53
2021/09/30 14:40:10;;;;;;;1.23;0.60;;;;;;;;;;5035483;28;20029;-53
2021/09/30 14:42:37;;;;;;;1.23;0.70;;;;;;;;;;5035221;28;20033;-52
2021/09/30 14:45:04;;;;;;;2.05;0.60;;;;;;;;;;5034637;28;20024;-53
2021/09/30 14:47:30;;;;;;;2.75;0.50;;;;;;;;;;5035483;28;20033;-52
2021/09/30 14:49:56;;;;;;;0.38;0.38;;;;;;;;;;5035449;28;20108;-52
2021/09/30 14:52:22;;;;;;;0.57;0.57;;;;;;;;;;5033801;28;20474;-53
2021/09/30 14:54:49;;;;;;;1.77;0.70;;;;;;;;;;5034193;28;20022;-53
2021/09/30 14:57:16;;;;;;;0.47;0.43;;;;;;;;;;5034998;28;20483;-52
2021/09/30 14:59:42;;;;;;;0.77;0.50;;;;;;;;;;5035397;28;20032;-53
2021/09/30 15:02:08;;;;;;;2.95;0.57;;;;;;;;;;5034909;28;20520;-53
2021/09/30 15:04:35;;;;;;;0.80;0.50;;;;;;;;;;5034481;28;20049;-52
2021/09/30 15:07:01;;;;;;;0.40;0.40;;;;;;;;;;5035398;28;20021;-52
2021/09/30 15:09:27;;;;;;;2.90;0.70;;;;;;;;;;5034762;28;20033;-53
2021/09/30 15:11:53;;;;;;;2.08;0.77;;;;;;;;;;5034769;28;20033;-53
2021/09/30 15:14:19;;;;;;;0.35;0.35;;;;;;;;;;5034101;28;20079;-52
2021/09/30 15:19:20;;;;;;;0.63;0.50;;;;;;;;;;5034909;28;20030;-53
2021/09/30 15:21:46;;;;;;;0.40;0.40;;;;;;;;;;5034916;28;20509;-52
2021/09/30 15:24:14;;;;;;;2.65;0.63;;;;;;;;;;5033239;28;20049;-52
2021/09/30 15:26:40;;;;;;;0.77;0.57;;;;;;;;;;5034806;28;20044;-53
2021/09/30 15:29:08;;;;;;;0.98;0.40;;;;;;;;;;5034645;28;20041;-52
2021/09/30 15:31:34;;;;;;;0.57;0.57;;;;;;;;;;5034621;28;20026;-52
2021/09/30 15:34:00;;;;;;;0.65;0.43;;;;;;;;;;5033798;28;20034;-52
2021/09/30 15:36:28;;;;;;;2.45;0.55;;;;;;;;;;5034266;28;20029;-53
2021/09/30 15:38:57;;;;;;;1.00;0.85;;;;;;;;;;5034109;28;20025;-53
2021/09/30 15:41:23;;;;;;;0.60;0.57;;;;;;;;;;5033309;28;20478;-52
2021/09/30 15:43:50;;;;;;;3.63;0.55;;;;;;;;;;5033418;28;20029;-53
2021/09/30 15:46:16;;;;;;;1.85;0.50;;;;;;;;;;5034641;28;20116;-52
2021/09/30 15:48:43;;;;;;;2.92;0.68;;;;;;;;;;5035837;28;20445;-52
2021/09/30 15:51:10;;;;;;;1.10;0.50;;;;;;;;;;5053865;28;20029;-52
2021/09/30 15:53:36;;;;;;;0.40;0.40;;;;;;;;;;5052420;28;20254;-52
2021/09/30 15:56:02;;;;;;;1.98;0.60;;;;;;;;;;5053880;28;20092;-52
2021/09/30 15:58:28;;;;;;;0.93;0.57;;;;;;;;;;5053490;28;20033;-52
2021/09/30 16:00:54;;;;;;;0.82;0.47;;;;;;;;;;5053869;28;20410;-52
2021/09/30 16:03:21;;;;;;;2.40;1.00;;;;;;;;;;5053845;28;20029;-53
2021/09/30 16:05:47;;;;;;;1.65;0.50;;;;;;;;;;5052685;28;20057;-53
2021/09/30 16:08:13;;;;;;;0.28;0.28;;;;;;;;;;5053772;28;20091;-53
2021/09/30 16:10:39;;;;;;;2.30;0.73;;;;;;;;;;5053472;28;20446;-53
2021/09/30 16:13:05;;;;;;;0.75;0.68;;;;;;;;;;5054213;28;20025;-53
2021/09/30 16:15:31;;;;;;;2.13;0.50;;;;;;;;;;5052851;28;20067;-53
2021/09/30 16:17:57;;;;;;;0.65;0.60;;;;;;;;;;5053928;28;20103;-53
2021/09/30 16:20:23;;;;;;;1.15;0.43;;;;;;;;;;5053084;28;20118;-53
2021/09/30 16:22:50;;;;;;;3.83;0.70;;;;;;;;;;5053625;28;20032;-53
2021/09/30 16:25:16;;;;;;;2.60;0.73;;;;;;;;;;5052710;28;20078;-52
2021/09/30 16:27:42;;;;;;;2.22;0.70;;;;;;;;;;5053674;28;20037;-53
2021/09/30 16:30:09;;;;;;;2.58;0.90;;;;;;;;;;5051415;28;20025;-52
2021/09/30 16:32:36;;;;;;;4.80;0.93;;;;;;;;;;5053037;28;20075;-53
2021/09/30 16:35:02;;;;;;;1.27;0.70;;;;;;;;;;5052683;28;20024;-52
2021/09/30 16:37:28;;;;;;;1.08;0.45;;;;;;;;;;5053439;28;20032;-53
2021/09/30 16:39:54;;;;;;;1.20;0.80;;;;;;;;;;5053251;28;20021;-53
2021/09/30 16:42:20;;;;;;;0.65;0.50;;;;;;;;;;5052845;28;20336;-52
2021/09/30 16:44:46;;;;;;;1.65;0.73;;;;;;;;;;5052770;28;20021;-52
2021/09/30 16:47:15;;;;;;;1.15;0.60;;;;;;;;;;5052939;28;20029;-53
2021/09/30 16:49:41;;;;;;;1.33;0.60;;;;;;;;;;5052640;28;20072;-52
2021/09/30 16:52:07;;;;;;;1.30;0.55;;;;;;;;;;5052558;28;20067;-54
2021/09/30 16:54:33;;;;;;;2.47;0.57;;;;;;;;;;5052433;28;20104;-55
2021/09/30 16:56:59;;;;;;;1.52;0.60;;;;;;;;;;5052852;28;20437;-55
2021/09/30 16:59:25;;;;;;;2.42;1.17;;;;;;;;;;5053295;28;20062;-54
2021/09/30 17:01:57;;;;;;;3.05;1.10;;;;;;;;;;5052961;28;20052;-54
2021/09/30 17:04:23;;;;;;;5.03;1.38;;;;;;;;;;5049731;28;20359;-54
2021/09/30 17:06:49;;;;;;;2.15;1.00;;;;;;;;;;5040483;28;20017;-54
2021/09/30 17:09:15;;;;;;;1.85;0.80;;;;;;;;;;5043406;28;20079;-54
2021/09/30 17:11:41;;;;;;;33.55;4.03;;;;;;;;;;5041793;28;20057;-55
2021/09/30 17:14:07;;;;;;;106.57;5.60;;;;;;;;;;5041549;28;20025;-55
2021/09/30 17:16:33;;;;;;;14.90;2.03;;;;;;;;;;5043188;28;20462;-54
2021/09/30 17:18:59;;;;;;;9.00;1.92;;;;;;;;;;5040449;28;20029;-54
2021/09/30 17:21:25;;;;;;;6.22;1.70;;;;;;;;;;5041579;28;20032;-54
2021/09/30 17:23:53;;;;;;;10.63;1.75;;;;;;;;;;5040698;28;20459;-54
2021/09/30 17:26:19;;;;;;;2.22;1.25;;;;;;;;;;5042567;28;20033;-54
2021/09/30 17:28:47;;;;;;;4.72;1.80;;;;;;;;;;5044955;28;20044;-54
2021/09/30 17:31:13;;;;;;;5.07;2.60;;;;;;;;;;5048541;28;20394;-55
2021/09/30 17:33:39;;;;;;;11.57;3.72;;;;;;;;;;5040860;28;20017;-54
2021/09/30 17:36:06;;;;;;;8.20;3.03;;;;;;;;;;5042441;28;20021;-54
2021/09/30 17:38:32;;;;;;;7.55;1.40;;;;;;;;;;5041511;28;20045;-54
2021/09/30 17:40:58;;;;;;;1.33;0.80;;;;;;;;;;5042116;28;20021;-55
2021/09/30 17:43:24;;;;;;;3.40;1.13;;;;;;;;;;5043180;28;20033;-54
2021/09/30 17:45:51;;;;;;;0.98;0.82;;;;;;;;;;5036982;28;20021;-54
2021/09/30 17:48:17;;;;;;;2.30;0.88;;;;;;;;;;5032298;28;20435;-54
2021/09/30 17:50:45;;;;;;;1.52;0.80;;;;;;;;;;5032221;28;20021;-54
2021/09/30 17:53:13;;;;;;;1.85;0.88;;;;;;;;;;5032295;28;20029;-54